Time;durP1;ratioP1;P1;durP2;ratioP2;P2;SDS_P1;SDS_P2;PMS_P1;PMS_P2;Temp;Humidity;BMP_temperature;BMP_pressure;BME280_temperature;BME280_humidity;BME280_pressure;Samples;Min_cycle;Max_cycle;Signal;HPM_P1;HPM_P2
2023/02/20 00:01:53;;;;;;;9.17;3.17;;;1.10;99.90;;;;;;5008877;28;20203;-72
2023/02/20 00:04:20;;;;;;;8.73;2.77;;;1.10;99.90;;;;;;5003974;28;20196;-78
2023/02/20 00:06:48;;;;;;;9.80;2.87;;;1.00;99.90;;;;;;4998588;28;20205;-75
2023/02/20 00:09:15;;;;;;;8.90;3.07;;;1.10;99.90;;;;;;5010666;28;20192;-78
2023/02/20 00:11:42;;;;;;;6.27;3.00;;;1.10;99.90;;;;;;4993002;28;20581;-75
2023/02/20 00:14:09;;;;;;;10.17;2.60;;;1.10;99.90;;;;;;4972015;28;20243;-74
2023/02/20 00:17:32;;;;;;;;;;;;;;;;;;;;;
2023/02/20 00:20:22;;;;;;;8.37;2.70;;;1.10;99.90;;;;;;4859965;29;20204;-73
2023/02/20 00:22:49;;;;;;;5.97;2.60;;;1.10;99.90;;;;;;4916666;29;20298;-75
2023/02/20 00:25:18;;;;;;;8.17;3.00;;;1.10;99.90;;;;;;4906785;29;20223;-74
2023/02/20 00:27:45;;;;;;;4.63;2.57;;;1.10;99.90;;;;;;4908200;29;20547;-74
2023/02/20 00:30:21;;;;;;;8.00;2.90;;;1.20;99.90;;;;;;4898474;29;20238;-74
2023/02/20 00:32:50;;;;;;;8.67;2.70;;;1.30;99.90;;;;;;4899936;29;20643;-72
2023/02/20 00:35:18;;;;;;;7.07;2.60;;;1.30;99.90;;;;;;4897911;29;20254;-72
2023/02/20 00:37:46;;;;;;;6.17;2.73;;;1.30;99.90;;;;;;4888577;29;20208;-75
2023/02/20 00:40:14;;;;;;;7.57;2.50;;;1.40;99.90;;;;;;4899663;29;20604;-74
2023/02/20 00:42:44;;;;;;;7.63;2.40;;;1.40;99.90;;;;;;4897833;29;20240;-73
2023/02/20 00:45:12;;;;;;;6.60;2.30;;;1.40;99.90;;;;;;4881641;29;20251;-77
2023/02/20 00:47:41;;;;;;;6.27;2.57;;;1.40;99.90;;;;;;4897703;29;20204;-79
2023/02/20 00:50:11;;;;;;;7.87;2.60;;;1.50;99.90;;;;;;4885787;29;20204;-79
2023/02/20 00:52:38;;;;;;;7.47;2.87;;;1.50;99.90;;;;;;4934200;29;20250;-83
2023/02/20 00:55:07;;;;;;;8.83;2.70;;;1.50;99.90;;;;;;4945580;28;20256;-84
2023/02/20 00:57:34;;;;;;;6.60;2.60;;;1.50;99.90;;;;;;4978527;28;20204;-83
2023/02/20 01:00:01;;;;;;;9.07;2.80;;;1.50;99.90;;;;;;4994449;28;20199;-84
2023/02/20 01:02:28;;;;;;;8.97;2.73;;;1.50;99.90;;;;;;4978303;28;20203;-86
2023/02/20 01:04:55;;;;;;;7.03;2.53;;;1.50;99.90;;;;;;4978870;28;20304;-74
2023/02/20 01:07:52;;;;;;;7.97;2.73;;;1.50;99.90;;;;;;4981733;28;20197;-76
2023/02/20 01:10:43;;;;;;;8.50;2.83;;;1.50;99.90;;;;;;4942669;28;20202;-84
2023/02/20 01:13:10;;;;;;;8.17;2.63;;;1.50;99.90;;;;;;4943941;29;20210;-84
2023/02/20 01:15:37;;;;;;;9.83;2.67;;;1.50;99.90;;;;;;4940110;29;20436;-85
2023/02/20 01:18:06;;;;;;;7.33;2.60;;;1.50;99.90;;;;;;4954388;28;20202;-87
2023/02/20 01:20:33;;;;;;;10.93;3.03;;;1.50;99.90;;;;;;4945454;28;20205;-83
2023/02/20 01:23:01;;;;;;;7.03;3.07;;;1.60;99.90;;;;;;4955534;28;20216;-74
2023/02/20 01:25:28;;;;;;;6.93;2.77;;;1.60;99.90;;;;;;4936429;29;20205;-75
2023/02/20 01:27:55;;;;;;;9.30;2.90;;;1.60;99.90;;;;;;4933093;29;20206;-72
2023/02/20 01:30:21;;;;;;;7.30;3.00;;;1.60;99.90;;;;;;4918385;29;20242;-71
2023/02/20 01:32:49;;;;;;;8.87;2.80;;;1.60;99.90;;;;;;4926982;29;20206;-74
2023/02/20 01:35:15;;;;;;;9.80;3.20;;;1.60;99.90;;;;;;4952491;28;20710;-73
2023/02/20 01:37:42;;;;;;;11.03;3.13;;;1.60;99.90;;;;;;4937354;29;20672;-72
2023/02/20 01:40:16;;;;;;;9.20;3.00;;;1.60;99.90;;;;;;4952691;28;20953;-71
2023/02/20 01:42:42;;;;;;;8.57;2.87;;;1.60;99.90;;;;;;4976003;28;20204;-74
2023/02/20 01:45:19;;;;;;;5.73;2.87;;;1.60;99.90;;;;;;4976535;28;20193;-74
2023/02/20 01:47:47;;;;;;;7.70;3.03;;;1.60;99.90;;;;;;4994046;28;20199;-74
2023/02/20 01:50:17;;;;;;;7.00;2.47;;;1.70;99.90;;;;;;4988594;28;20192;-75
2023/02/20 01:52:48;;;;;;;6.33;2.87;;;1.70;99.90;;;;;;4984753;28;20669;-72
2023/02/20 01:55:18;;;;;;;8.77;2.90;;;1.60;99.90;;;;;;5004763;28;20586;-73
2023/02/20 01:58:03;;;;;;;7.70;2.90;;;1.70;99.90;;;;;;4982630;28;20196;-70
2023/02/20 02:00:31;;;;;;;6.80;2.70;;;1.60;99.90;;;;;;4985526;28;20308;-73
2023/02/20 02:03:09;;;;;;;7.73;3.13;;;1.70;99.90;;;;;;4995408;28;20231;-73
2023/02/20 02:05:39;;;;;;;8.07;2.70;;;1.70;99.90;;;;;;5013609;28;20624;-71
2023/02/20 02:08:08;;;;;;;10.37;2.60;;;1.70;99.90;;;;;;5013529;28;20198;-73
2023/02/20 02:10:43;;;;;;;7.80;2.70;;;1.70;99.90;;;;;;4999295;28;20204;-72
2023/02/20 02:13:11;;;;;;;6.43;2.53;;;1.70;99.90;;;;;;4994108;28;20203;-75
2023/02/20 02:15:37;;;;;;;6.77;2.60;;;1.70;99.90;;;;;;4992290;28;20275;-73
2023/02/20 02:18:36;;;;;;;8.50;2.67;;;1.70;99.90;;;;;;4991695;28;20537;-72
2023/02/20 02:21:11;;;;;;;9.77;2.67;;;1.70;99.90;;;;;;4961799;28;20197;-74
2023/02/20 02:23:54;;;;;;;8.70;2.57;;;1.70;99.90;;;;;;4978503;28;20219;-72
2023/02/20 02:26:36;;;;;;;5.87;2.30;;;1.70;99.90;;;;;;4977823;28;20251;-73
2023/02/20 02:29:33;;;;;;;8.37;3.00;;;1.70;99.90;;;;;;4976018;28;20693;-74
2023/02/20 02:32:12;;;;;;;11.30;2.50;;;1.70;99.90;;;;;;4983847;28;20655;-71
2023/02/20 02:35:03;;;;;;;7.10;2.60;;;1.70;99.90;;;;;;4981900;28;20243;-72
2023/02/20 02:37:57;;;;;;;6.77;2.60;;;1.70;99.90;;;;;;4992055;28;20193;-71
2023/02/20 02:40:41;;;;;;;7.47;2.63;;;1.70;99.90;;;;;;4991972;28;20635;-72
2023/02/20 02:43:49;;;;;;;6.13;2.87;;;1.60;99.90;;;;;;4992983;28;20220;-71
2023/02/20 02:46:56;;;;;;;6.30;2.60;;;1.70;99.90;;;;;;4993012;28;20646;-71
2023/02/20 02:49:52;;;;;;;8.20;2.60;;;1.70;99.90;;;;;;4975934;28;20201;-74
2023/02/20 02:55:08;;;;;;;6.77;2.80;;;1.60;99.90;;;;;;4991902;28;20227;-71
2023/02/20 02:57:35;;;;;;;8.83;2.90;;;1.60;99.90;;;;;;4991899;28;20643;-70
2023/02/20 03:00:14;;;;;;;5.73;2.50;;;1.60;99.90;;;;;;4991748;28;20208;-72
2023/02/20 03:03:02;;;;;;;6.47;2.70;;;1.60;99.90;;;;;;4972580;28;20193;-69
2023/02/20 03:05:45;;;;;;;7.73;2.50;;;1.60;99.90;;;;;;4988977;28;20209;-73
2023/02/20 03:08:41;;;;;;;6.80;2.80;;;1.60;99.90;;;;;;4991665;28;20204;-70
2023/02/20 03:11:14;;;;;;;6.97;2.83;;;1.60;99.90;;;;;;4992269;28;20200;-72
2023/02/20 03:17:03;;;;;;;7.40;2.80;;;1.60;99.90;;;;;;4995842;28;20556;-75
2023/02/20 03:19:58;;;;;;;5.90;2.60;;;1.60;99.90;;;;;;4969857;28;20742;-74
2023/02/20 03:22:44;;;;;;;5.87;2.37;;;1.70;99.90;;;;;;4990976;28;20216;-74
2023/02/20 03:25:16;;;;;;;6.23;2.50;;;1.60;99.90;;;;;;4977244;28;20552;-74
2023/02/20 03:27:57;;;;;;;8.27;2.80;;;1.60;99.90;;;;;;4987353;28;20367;-72
2023/02/20 03:30:36;;;;;;;9.83;3.10;;;1.60;99.90;;;;;;4995232;28;20232;-72
2023/02/20 03:44:33;;;;;;;6.70;2.43;;;1.60;99.90;;;;;;4997263;28;20189;-71
2023/02/20 03:47:01;;;;;;;5.73;2.20;;;1.70;99.90;;;;;;4977885;28;20198;-74
2023/02/20 03:49:35;;;;;;;6.50;2.60;;;1.60;99.90;;;;;;4993474;28;20200;-71
2023/02/20 03:52:03;;;;;;;5.67;2.33;;;1.60;99.90;;;;;;4996026;28;20203;-69
2023/02/20 03:54:32;;;;;;;6.87;2.87;;;1.60;99.90;;;;;;5011316;28;20249;-70
2023/02/20 03:57:04;;;;;;;6.97;2.20;;;1.60;99.90;;;;;;4995066;28;20197;-69
2023/02/20 03:59:49;;;;;;;6.23;2.40;;;1.60;99.90;;;;;;4994848;28;20211;-69
2023/02/20 04:02:31;;;;;;;4.80;2.37;;;1.60;99.90;;;;;;4995959;28;20196;-70
2023/02/20 04:05:06;;;;;;;5.23;2.40;;;1.70;99.90;;;;;;4994593;28;20292;-71
2023/02/20 04:07:38;;;;;;;6.37;2.63;;;1.60;99.90;;;;;;4995963;28;20193;-70
2023/02/20 04:10:09;;;;;;;6.80;2.70;;;1.60;99.90;;;;;;4994871;28;20200;-72
2023/02/20 04:12:41;;;;;;;7.00;2.60;;;1.50;99.90;;;;;;4995634;28;20234;-70
2023/02/20 04:15:10;;;;;;;5.10;2.60;;;1.60;99.90;;;;;;4994250;28;20216;-69
2023/02/20 04:17:50;;;;;;;9.43;2.50;;;1.60;99.90;;;;;;4994205;28;20211;-69
2023/02/20 04:20:17;;;;;;;7.57;2.23;;;1.60;99.90;;;;;;4994517;28;20590;-70
2023/02/20 04:22:48;;;;;;;5.47;2.50;;;1.50;99.90;;;;;;4964868;28;20197;-69
2023/02/20 04:25:23;;;;;;;5.73;2.40;;;1.50;99.90;;;;;;4956136;28;20559;-70
2023/02/20 04:27:51;;;;;;;6.97;2.70;;;1.50;99.90;;;;;;4995704;28;20189;-70
2023/02/20 04:30:18;;;;;;;8.07;2.40;;;1.50;99.90;;;;;;4977614;28;20630;-67
2023/02/20 04:32:45;;;;;;;6.77;1.97;;;1.40;99.90;;;;;;4994260;28;20204;-67
2023/02/20 04:35:16;;;;;;;5.77;2.50;;;1.50;99.90;;;;;;4993683;28;20567;-67
2023/02/20 04:37:43;;;;;;;5.67;2.40;;;1.50;99.90;;;;;;4980922;28;20200;-68
2023/02/20 04:40:13;;;;;;;5.83;2.20;;;1.50;99.90;;;;;;4977720;28;20192;-66
2023/02/20 04:42:40;;;;;;;5.43;2.40;;;1.50;99.90;;;;;;4977893;28;20201;-67
2023/02/20 04:45:06;;;;;;;7.13;2.60;;;1.50;99.90;;;;;;4977361;28;20204;-66
2023/02/20 04:47:33;;;;;;;7.27;2.67;;;1.40;99.90;;;;;;4977555;28;20563;-70
2023/02/20 04:50:01;;;;;;;5.73;2.47;;;1.40;99.90;;;;;;4977466;28;20197;-69
2023/02/20 04:52:27;;;;;;;5.90;2.20;;;1.40;99.90;;;;;;4977440;28;20602;-68
2023/02/20 04:54:54;;;;;;;5.50;2.40;;;1.40;99.90;;;;;;4977275;28;20664;-68
2023/02/20 04:57:21;;;;;;;5.83;2.50;;;1.50;99.90;;;;;;4983518;28;20212;-68
2023/02/20 04:59:48;;;;;;;5.00;2.20;;;1.50;99.90;;;;;;4993587;28;20207;-68
2023/02/20 05:02:15;;;;;;;7.50;2.43;;;1.50;99.90;;;;;;4993471;28;20197;-70
2023/02/20 05:04:42;;;;;;;4.93;2.30;;;1.50;99.90;;;;;;4993547;28;20208;-72
2023/02/20 05:07:09;;;;;;;8.03;2.50;;;1.50;99.90;;;;;;4994603;28;20255;-71
2023/02/20 05:09:35;;;;;;;6.13;2.30;;;1.50;99.90;;;;;;4994649;28;20199;-68
2023/02/20 05:12:02;;;;;;;6.67;2.50;;;1.60;99.90;;;;;;4991239;28;20215;-72
2023/02/20 05:14:29;;;;;;;5.57;2.40;;;1.60;99.90;;;;;;5009330;28;20221;-72
2023/02/20 05:16:56;;;;;;;8.13;2.73;;;1.60;99.90;;;;;;4988142;28;20217;-72
2023/02/20 05:19:23;;;;;;;6.60;2.53;;;1.60;99.90;;;;;;4993260;28;20205;-73
2023/02/20 05:24:35;;;;;;;5.57;2.43;;;1.70;99.90;;;;;;4957510;28;20201;-73
2023/02/20 05:27:02;;;;;;;5.93;2.37;;;1.80;99.90;;;;;;4976628;28;20239;-73
2023/02/20 05:29:29;;;;;;;4.60;2.30;;;1.80;99.90;;;;;;4976802;28;20216;-73
2023/02/20 05:31:56;;;;;;;3.57;2.30;;;1.70;99.90;;;;;;4976817;28;20196;-69
2023/02/20 05:34:24;;;;;;;8.50;2.50;;;1.80;99.90;;;;;;4976584;28;20193;-72
2023/02/20 05:36:52;;;;;;;6.43;2.50;;;1.80;99.90;;;;;;4976476;28;20217;-69
2023/02/20 05:39:20;;;;;;;5.53;2.60;;;1.80;99.90;;;;;;4976046;28;20197;-67
2023/02/20 05:41:48;;;;;;;8.37;2.70;;;1.90;99.90;;;;;;4976607;28;20200;-68
2023/02/20 05:44:15;;;;;;;5.37;2.40;;;1.90;99.90;;;;;;4970050;28;20208;-67
2023/02/20 05:46:42;;;;;;;5.93;2.40;;;1.90;99.90;;;;;;4957384;28;20220;-71
2023/02/20 05:49:10;;;;;;;10.47;2.40;;;1.90;99.90;;;;;;4974480;28;20232;-70
2023/02/20 05:51:37;;;;;;;6.17;2.57;;;2.00;99.90;;;;;;4957248;28;20197;-71
2023/02/20 05:54:04;;;;;;;7.80;2.53;;;2.00;99.90;;;;;;4973176;28;20205;-73
2023/02/20 05:56:31;;;;;;;6.70;2.17;;;2.00;99.90;;;;;;4966492;28;20228;-70
2023/02/20 05:58:59;;;;;;;6.13;2.70;;;2.00;99.90;;;;;;4957004;28;20201;-74
2023/02/20 06:01:28;;;;;;;5.23;2.40;;;2.00;99.90;;;;;;4981407;28;20200;-70
2023/02/20 06:03:55;;;;;;;5.40;2.30;;;2.00;99.90;;;;;;4993754;28;20203;-73
2023/02/20 06:06:23;;;;;;;6.23;2.47;;;2.00;99.90;;;;;;4976102;28;20200;-73
2023/02/20 06:08:50;;;;;;;5.10;2.30;;;2.00;99.90;;;;;;4975985;28;20200;-72
2023/02/20 06:11:16;;;;;;;6.63;2.33;;;2.10;99.90;;;;;;4976122;28;20189;-72
2023/02/20 06:13:44;;;;;;;5.00;2.30;;;2.10;99.90;;;;;;4975935;28;20201;-72
2023/02/20 06:16:12;;;;;;;7.57;2.50;;;2.00;99.90;;;;;;4975852;28;20243;-72
2023/02/20 06:18:41;;;;;;;6.90;2.53;;;2.20;99.90;;;;;;4975876;28;20193;-73
2023/02/20 06:21:09;;;;;;;10.13;2.60;;;2.20;99.90;;;;;;4975913;28;20197;-71
2023/02/20 06:23:37;;;;;;;5.67;2.30;;;2.20;99.90;;;;;;4993422;28;20597;-73
2023/02/20 06:26:05;;;;;;;6.47;2.80;;;2.20;99.90;;;;;;4975579;28;20651;-69
2023/02/20 06:28:32;;;;;;;5.27;2.47;;;2.30;99.90;;;;;;4975881;28;20213;-72
2023/02/20 06:31:00;;;;;;;6.77;2.67;;;2.30;99.90;;;;;;4991874;28;20204;-72
2023/02/20 06:33:28;;;;;;;9.33;2.77;;;2.30;99.90;;;;;;4993431;28;20391;-70
2023/02/20 06:35:55;;;;;;;7.87;2.47;;;2.40;99.90;;;;;;4975497;28;20240;-72
2023/02/20 06:38:23;;;;;;;10.57;2.60;;;2.40;99.90;;;;;;4975814;28;20193;-71
2023/02/20 06:40:50;;;;;;;7.80;2.50;;;2.40;99.90;;;;;;4975565;28;21072;-73
2023/02/20 06:43:17;;;;;;;6.03;2.30;;;2.60;99.90;;;;;;4975426;28;20674;-71
2023/02/20 06:45:45;;;;;;;6.30;2.63;;;2.60;99.90;;;;;;4975432;28;20649;-72
2023/02/20 06:48:15;;;;;;;6.80;2.67;;;2.60;99.90;;;;;;4992934;28;20543;-70
2023/02/20 06:50:42;;;;;;;7.87;2.40;;;2.70;99.90;;;;;;4975573;28;20200;-71
2023/02/20 06:53:08;;;;;;;7.30;2.60;;;2.70;99.90;;;;;;4991779;28;20201;-69
2023/02/20 06:55:35;;;;;;;7.97;2.50;;;2.70;99.90;;;;;;4993160;28;20619;-69
2023/02/20 06:58:02;;;;;;;5.23;2.50;;;2.70;99.90;;;;;;4975830;28;20548;-70
2023/02/20 07:00:29;;;;;;;7.23;2.40;;;2.70;99.90;;;;;;4975303;28;20205;-74
2023/02/20 07:02:56;;;;;;;5.57;2.37;;;2.80;99.90;;;;;;4991608;28;20730;-75
2023/02/20 07:05:23;;;;;;;4.87;2.30;;;2.80;99.90;;;;;;4975296;28;20216;-75
2023/02/20 07:07:50;;;;;;;5.77;2.60;;;2.90;99.90;;;;;;4975435;28;20553;-75
2023/02/20 07:10:17;;;;;;;6.83;2.33;;;3.00;99.90;;;;;;4992938;28;20710;-76
2023/02/20 07:12:44;;;;;;;4.17;2.03;;;3.00;99.90;;;;;;4975475;28;20215;-77
2023/02/20 07:15:11;;;;;;;9.30;2.47;;;3.10;99.90;;;;;;4975252;28;20687;-76
2023/02/20 07:17:38;;;;;;;6.90;2.57;;;3.20;99.90;;;;;;4975211;28;20221;-74
2023/02/20 07:20:06;;;;;;;6.33;2.30;;;3.20;99.90;;;;;;4974639;28;20195;-75
2023/02/20 07:22:33;;;;;;;8.87;2.90;;;3.20;99.90;;;;;;4962620;28;20215;-76
2023/02/20 07:25:00;;;;;;;7.10;2.50;;;3.30;99.90;;;;;;4940284;28;20198;-73
2023/02/20 07:27:45;;;;;;;8.37;2.47;;;3.40;99.90;;;;;;4974446;28;20209;-73
2023/02/20 07:30:24;;;;;;;6.27;2.40;;;3.40;99.90;;;;;;4994918;28;20225;-76
2023/02/20 07:32:51;;;;;;;9.23;2.80;;;3.40;99.90;;;;;;5011234;28;20196;-76
2023/02/20 07:35:22;;;;;;;7.83;2.67;;;3.40;99.90;;;;;;4990822;28;20213;-76
2023/02/20 07:37:49;;;;;;;7.53;2.60;;;3.40;99.90;;;;;;4975332;28;20196;-76
2023/02/20 07:40:16;;;;;;;4.73;2.53;;;3.50;99.90;;;;;;4993187;28;20197;-79
2023/02/20 07:42:47;;;;;;;6.37;2.57;;;3.60;99.90;;;;;;4975812;28;20309;-80
2023/02/20 07:45:15;;;;;;;5.93;2.77;;;3.60;99.90;;;;;;4975539;28;20579;-81
2023/02/20 07:47:42;;;;;;;8.07;2.63;;;3.70;99.90;;;;;;4975245;28;20213;-77
2023/02/20 07:50:09;;;;;;;12.00;2.90;;;3.70;99.90;;;;;;4974992;28;20201;-78
2023/02/20 07:52:35;;;;;;;7.63;2.73;;;3.80;99.90;;;;;;4992472;28;20212;-77
2023/02/20 07:55:03;;;;;;;4.87;2.30;;;3.80;99.90;;;;;;4975174;28;20294;-78
2023/02/20 07:57:35;;;;;;;8.37;2.87;;;3.70;99.90;;;;;;4975310;28;20634;-77
2023/02/20 08:00:10;;;;;;;6.77;3.00;;;3.70;99.90;;;;;;4992277;28;20304;-76
2023/02/20 08:02:39;;;;;;;7.17;2.80;;;3.70;99.90;;;;;;4987725;28;20203;-76
2023/02/20 08:05:06;;;;;;;11.27;3.30;;;3.70;99.90;;;;;;4995879;28;20292;-76
2023/02/20 08:07:34;;;;;;;7.53;2.80;;;3.80;99.90;;;;;;4978945;28;20204;-76
2023/02/20 08:10:01;;;;;;;6.93;2.63;;;3.70;99.90;;;;;;4979568;28;20296;-77
2023/02/20 08:12:28;;;;;;;7.23;2.77;;;3.70;99.90;;;;;;4978523;28;20206;-76
2023/02/20 08:14:56;;;;;;;7.47;2.90;;;3.80;99.90;;;;;;4978492;28;20272;-76
2023/02/20 08:17:22;;;;;;;6.73;3.00;;;3.80;99.90;;;;;;4995891;28;20627;-77
2023/02/20 08:19:53;;;;;;;7.03;3.00;;;3.80;99.90;;;;;;4982773;28;20238;-76
2023/02/20 08:22:20;;;;;;;9.80;2.63;;;4.00;99.90;;;;;;4978186;28;20207;-75
2023/02/20 08:25:05;;;;;;;5.97;2.90;;;4.10;99.90;;;;;;4989011;28;20205;-77
2023/02/20 08:27:37;;;;;;;6.33;2.80;;;4.10;99.90;;;;;;4995996;28;20305;-78
2023/02/20 08:30:10;;;;;;;7.47;2.80;;;4.20;99.90;;;;;;5010151;28;20996;-78
2023/02/20 08:32:37;;;;;;;6.27;2.80;;;4.20;99.90;;;;;;4998041;28;20197;-80
2023/02/20 08:35:04;;;;;;;4.47;2.27;;;4.20;99.90;;;;;;4996183;28;20204;-76
2023/02/20 08:37:31;;;;;;;6.83;3.00;;;4.20;99.90;;;;;;4998735;28;20204;-79
2023/02/20 08:39:59;;;;;;;6.40;2.40;;;4.20;99.90;;;;;;4998172;28;20384;-79
2023/02/20 08:42:29;;;;;;;5.20;2.40;;;4.20;99.90;;;;;;5014265;28;20667;-78
2023/02/20 08:44:56;;;;;;;7.90;2.23;;;4.10;99.90;;;;;;4981881;28;20229;-76
2023/02/20 08:47:23;;;;;;;9.77;2.60;;;4.00;99.90;;;;;;4978233;28;20214;-78
2023/02/20 08:49:50;;;;;;;5.63;2.53;;;4.00;99.90;;;;;;4978061;28;20202;-78
2023/02/20 08:52:18;;;;;;;7.17;2.50;;;4.00;99.90;;;;;;4996256;28;20208;-77
2023/02/20 08:54:47;;;;;;;3.73;2.30;;;3.80;99.90;;;;;;4995374;28;20273;-79
2023/02/20 08:57:17;;;;;;;4.97;2.67;;;3.70;99.90;;;;;;4995921;28;20222;-79
2023/02/20 08:59:44;;;;;;;6.20;2.70;;;3.70;99.90;;;;;;4978331;28;20189;-78
2023/02/20 09:02:17;;;;;;;8.43;3.07;;;3.60;99.90;;;;;;4995606;28;20271;-79
2023/02/20 09:04:45;;;;;;;7.77;3.03;;;3.60;99.90;;;;;;4977719;28;20197;-80
2023/02/20 09:07:12;;;;;;;7.33;3.17;;;3.50;99.90;;;;;;4978680;28;20207;-76
2023/02/20 09:09:40;;;;;;;8.50;3.27;;;3.40;99.90;;;;;;4993853;28;20647;-79
2023/02/20 09:12:08;;;;;;;6.30;3.37;;;3.30;99.90;;;;;;4957507;28;20206;-82
2023/02/20 09:14:36;;;;;;;6.00;3.37;;;3.30;99.90;;;;;;4988311;28;20690;-79
2023/02/20 09:17:04;;;;;;;5.03;3.13;;;3.30;99.90;;;;;;4977415;28;20223;-81
2023/02/20 09:19:31;;;;;;;8.40;3.70;;;3.30;99.90;;;;;;4977983;28;20621;-83
2023/02/20 09:21:58;;;;;;;11.57;4.50;;;3.20;99.90;;;;;;5001742;28;20603;-82
2023/02/20 09:24:30;;;;;;;10.13;4.43;;;3.10;99.90;;;;;;4976885;28;20189;-85
2023/02/20 09:26:58;;;;;;;9.77;5.03;;;3.00;99.90;;;;;;5003967;28;20186;-85
2023/02/20 09:29:25;;;;;;;10.13;5.50;;;3.00;99.90;;;;;;4978993;28;20698;-83
2023/02/20 09:31:53;;;;;;;9.47;5.50;;;3.00;99.90;;;;;;4996541;28;20801;-84
2023/02/20 09:34:20;;;;;;;13.97;6.30;;;2.90;99.90;;;;;;4978341;28;20228;-82
2023/02/20 09:36:50;;;;;;;12.77;6.37;;;2.90;99.90;;;;;;4995593;28;20221;-82
2023/02/20 09:39:18;;;;;;;13.30;6.40;;;2.90;99.90;;;;;;4994953;28;20193;-79
2023/02/20 09:42:07;;;;;;;13.33;6.47;;;2.80;99.90;;;;;;5005241;28;20232;-78
2023/02/20 09:45:00;;;;;;;13.87;6.03;;;2.80;99.90;;;;;;5000501;28;20264;-78
2023/02/20 09:48:05;;;;;;;12.00;6.40;;;2.80;99.90;;;;;;4994222;28;20658;-81
2023/02/20 09:50:35;;;;;;;11.20;6.23;;;2.70;99.90;;;;;;4994495;28;20538;-79
2023/02/20 09:53:14;;;;;;;12.23;6.23;;;2.70;99.90;;;;;;4995881;28;20195;-80
2023/02/20 09:55:42;;;;;;;11.43;6.17;;;2.70;99.90;;;;;;4993432;28;20240;-79
2023/02/20 09:58:28;;;;;;;12.43;6.67;;;2.60;99.90;;;;;;4992911;28;20227;-77
2023/02/20 10:00:59;;;;;;;14.90;7.13;;;2.50;99.90;;;;;;4992856;28;20201;-81
2023/02/20 10:03:56;;;;;;;18.10;7.30;;;2.40;99.90;;;;;;4994027;28;20239;-79
2023/02/20 10:06:27;;;;;;;14.27;7.77;;;2.20;99.90;;;;;;4990800;28;20209;-80
2023/02/20 10:08:54;;;;;;;14.97;7.33;;;2.10;99.90;;;;;;4994492;28;20213;-80
2023/02/20 10:11:35;;;;;;;17.03;8.90;;;2.10;99.90;;;;;;4977127;28;20251;-78
2023/02/20 10:14:11;;;;;;;16.77;8.17;;;1.90;99.90;;;;;;4994817;28;20632;-83
2023/02/20 10:16:54;;;;;;;18.13;8.73;;;1.90;99.90;;;;;;4976715;28;20235;-81
2023/02/20 10:19:52;;;;;;;18.77;8.80;;;1.80;99.90;;;;;;4994302;28;20194;-76
2023/02/20 10:22:24;;;;;;;18.10;9.17;;;1.80;99.90;;;;;;4976960;28;20201;-81
2023/02/20 10:25:18;;;;;;;23.60;9.60;;;1.80;99.90;;;;;;4976425;28;20195;-82
2023/02/20 10:27:54;;;;;;;18.27;9.87;;;1.70;99.90;;;;;;4973002;28;20277;-82
2023/02/20 10:30:32;;;;;;;20.30;9.43;;;1.70;99.90;;;;;;4971942;28;20673;-81
2023/02/20 10:33:40;;;;;;;21.47;10.63;;;1.70;99.90;;;;;;4992612;28;20201;-81
2023/02/20 10:36:29;;;;;;;19.53;9.93;;;1.70;99.90;;;;;;4992583;28;20299;-81
2023/02/20 10:39:10;;;;;;;19.47;10.00;;;1.70;99.90;;;;;;4994549;28;20277;-83
2023/02/20 10:41:42;;;;;;;20.03;10.30;;;1.70;99.90;;;;;;4992712;28;20201;-82
2023/02/20 10:44:30;;;;;;;19.70;10.00;;;1.70;99.90;;;;;;4991891;28;20212;-81
2023/02/20 10:47:27;;;;;;;18.20;10.17;;;1.70;99.90;;;;;;4993891;28;20560;-80
2023/02/20 10:50:06;;;;;;;18.73;10.03;;;1.70;99.90;;;;;;4993291;28;20677;-81
2023/02/20 10:52:50;;;;;;;18.80;10.13;;;1.80;99.90;;;;;;4992230;28;20193;-78
2023/02/20 10:55:35;;;;;;;21.17;10.27;;;1.80;99.90;;;;;;4987311;28;20208;-81
2023/02/20 10:58:09;;;;;;;18.37;10.13;;;1.80;99.90;;;;;;4973250;28;20217;-79
2023/02/20 11:00:41;;;;;;;19.83;10.77;;;1.80;99.90;;;;;;4989587;28;20654;-76
2023/02/20 11:03:16;;;;;;;19.83;10.63;;;1.80;99.90;;;;;;4975230;28;20197;-83
2023/02/20 11:05:52;;;;;;;19.03;9.50;;;1.80;99.90;;;;;;4991461;28;20204;-80
2023/02/20 11:08:20;;;;;;;19.93;9.63;;;1.80;99.90;;;;;;4972919;28;21124;-82
2023/02/20 11:10:50;;;;;;;23.77;11.17;;;1.80;99.90;;;;;;4969275;28;20757;-86
2023/02/20 11:13:24;;;;;;;19.97;9.83;;;1.80;99.90;;;;;;4965310;28;20662;-82
2023/02/20 11:15:54;;;;;;;19.80;10.10;;;1.80;99.90;;;;;;4973441;28;20215;-84
2023/02/20 11:18:37;;;;;;;17.03;9.57;;;1.80;99.90;;;;;;4983072;28;20264;-83
2023/02/20 11:21:04;;;;;;;18.00;10.20;;;1.70;99.90;;;;;;4986956;28;20193;-84
2023/02/20 11:23:48;;;;;;;19.27;9.97;;;1.70;99.90;;;;;;4977493;28;20202;-80
2023/02/20 11:26:30;;;;;;;16.43;9.20;;;1.70;99.90;;;;;;4982266;28;20662;-81
2023/02/20 11:29:19;;;;;;;20.67;10.77;;;1.70;99.90;;;;;;4990262;28;20236;-84
2023/02/20 11:31:49;;;;;;;15.20;9.10;;;1.70;99.90;;;;;;4968867;28;20201;-76
2023/02/20 11:34:24;;;;;;;18.40;9.37;;;1.70;99.90;;;;;;4987113;28;20200;-77
2023/02/20 11:36:54;;;;;;;18.17;10.23;;;1.70;99.90;;;;;;4994869;28;20213;-79
2023/02/20 11:39:27;;;;;;;18.93;10.40;;;1.80;99.90;;;;;;5011826;28;20623;-75
2023/02/20 11:42:17;;;;;;;18.47;10.53;;;1.80;99.90;;;;;;4980576;28;20198;-79
2023/02/20 11:44:44;;;;;;;20.17;9.50;;;1.90;99.90;;;;;;5016223;28;20232;-84
2023/02/20 11:47:25;;;;;;;21.07;11.60;;;2.00;99.90;;;;;;4975108;28;20663;-81
2023/02/20 11:50:18;;;;;;;19.47;10.50;;;2.10;99.90;;;;;;4978422;28;20236;-79
2023/02/20 11:52:57;;;;;;;18.90;10.67;;;2.20;99.90;;;;;;4959148;28;20203;-77
2023/02/20 11:55:26;;;;;;;20.53;10.77;;;2.30;99.90;;;;;;4993677;28;20210;-82
2023/02/20 11:57:54;;;;;;;18.73;9.83;;;2.40;99.90;;;;;;4977537;28;20760;-77
2023/02/20 12:00:26;;;;;;;17.73;10.53;;;2.50;99.90;;;;;;4978739;28;20204;-79
2023/02/20 12:03:12;;;;;;;20.57;10.60;;;2.50;99.90;;;;;;4992572;28;20224;-79
2023/02/20 12:05:42;;;;;;;18.23;10.10;;;2.60;99.90;;;;;;4999031;28;20196;-81
2023/02/20 12:08:37;;;;;;;18.43;10.47;;;2.70;99.90;;;;;;4988508;28;20192;-81
2023/02/20 12:11:18;;;;;;;18.73;9.43;;;2.80;99.90;;;;;;4989799;28;20197;-79
2023/02/20 12:13:54;;;;;;;17.93;9.67;;;2.90;99.90;;;;;;4989875;28;20277;-82
2023/02/20 12:16:59;;;;;;;14.47;8.50;;;3.00;99.90;;;;;;4997752;28;20212;-84
2023/02/20 12:19:49;;;;;;;16.63;9.47;;;3.20;99.90;;;;;;4978865;28;20210;-78
2023/02/20 12:22:24;;;;;;;15.53;9.27;;;3.40;99.90;;;;;;4995206;28;20666;-77
2023/02/20 12:25:11;;;;;;;14.47;8.60;;;3.40;99.90;;;;;;4977434;28;20279;-78
2023/02/20 12:27:52;;;;;;;15.53;8.93;;;3.60;99.90;;;;;;4976500;28;20174;-76
2023/02/20 12:30:42;;;;;;;16.00;8.87;;;3.80;99.90;;;;;;4958976;28;20276;-83
2023/02/20 12:33:36;;;;;;;14.73;7.90;;;3.80;99.90;;;;;;4959147;28;20210;-76
2023/02/20 12:36:19;;;;;;;15.57;8.53;;;3.90;99.90;;;;;;4942758;28;20208;-79
2023/02/20 12:39:11;;;;;;;15.20;8.17;;;4.00;99.90;;;;;;4958837;28;20321;-77
2023/02/20 12:41:51;;;;;;;17.07;8.37;;;4.10;99.90;;;;;;4961956;28;20270;-75
2023/02/20 12:44:24;;;;;;;14.43;7.77;;;4.10;99.90;;;;;;4980862;28;20200;-75
2023/02/20 12:47:28;;;;;;;13.80;7.67;;;4.30;99.90;;;;;;4968319;28;20728;-79
2023/02/20 12:50:02;;;;;;;14.80;7.80;;;4.40;99.90;;;;;;4920822;29;20216;-75
2023/02/20 12:52:51;;;;;;;12.00;7.70;;;4.40;99.90;;;;;;4900394;29;20200;-83
2023/02/20 12:55:27;;;;;;;13.63;8.57;;;4.50;99.90;;;;;;4900467;29;20207;-75
2023/02/20 12:58:09;;;;;;;13.33;7.97;;;4.60;99.90;;;;;;4900214;29;20226;-79
2023/02/20 13:00:46;;;;;;;15.50;8.10;;;4.60;99.90;;;;;;4900492;29;20196;-80
2023/02/20 13:03:34;;;;;;;14.57;7.77;;;4.60;99.90;;;;;;4900394;29;20279;-82
2023/02/20 13:06:04;;;;;;;15.87;8.30;;;4.60;99.90;;;;;;4901502;29;20215;-84
2023/02/20 13:08:59;;;;;;;15.10;8.80;;;4.80;99.90;;;;;;4916708;29;20208;-78
2023/02/20 13:11:32;;;;;;;14.57;8.23;;;4.80;99.90;;;;;;4916401;29;20710;-78
2023/02/20 13:14:49;;;;;;;14.60;8.60;;;4.90;99.90;;;;;;4915918;29;20212;-77
2023/02/20 13:17:29;;;;;;;17.53;8.73;;;4.80;99.90;;;;;;4841259;29;20637;-72
2023/02/20 13:20:08;;;;;;;14.50;8.47;;;4.80;99.90;;;;;;4841155;29;20260;-73
2023/02/20 13:22:38;;;;;;;15.27;8.87;;;4.80;99.90;;;;;;4841011;29;20679;-78
2023/02/20 13:25:30;;;;;;;15.17;8.60;;;4.90;99.90;;;;;;4842637;29;20208;-80
2023/02/20 13:28:12;;;;;;;15.47;8.50;;;4.90;99.90;;;;;;4862866;29;20206;-78
2023/02/20 13:30:40;;;;;;;15.93;8.43;;;5.00;99.90;;;;;;4862670;29;20239;-79
2023/02/20 13:33:24;;;;;;;14.93;8.37;;;5.00;99.90;;;;;;4878558;29;20241;-77
2023/02/20 13:35:55;;;;;;;15.20;8.97;;;5.00;99.90;;;;;;4862863;29;20290;-78
2023/02/20 13:38:27;;;;;;;14.30;8.20;;;5.20;99.90;;;;;;4862420;29;20623;-77
2023/02/20 13:40:54;;;;;;;13.13;8.33;;;5.10;99.90;;;;;;4864510;29;20252;-78
2023/02/20 13:43:21;;;;;;;19.30;8.70;;;5.20;99.90;;;;;;4862791;29;20215;-76
2023/02/20 13:46:11;;;;;;;15.30;8.80;;;5.20;99.90;;;;;;4862032;29;20214;-77
2023/02/20 13:48:38;;;;;;;14.93;8.40;;;5.20;99.90;;;;;;4878022;29;20645;-77